createdAt,value
2022-12-28T00:01:49.128Z,3.24
2022-12-28T00:04:21.200Z,3.27
2022-12-28T00:06:53.150Z,3.21
2022-12-28T00:09:26.210Z,3.26
2022-12-28T00:11:57.938Z,3.09
2022-12-28T00:14:29.689Z,3.21
2022-12-28T00:17:01.540Z,3.27
2022-12-28T00:19:33.488Z,2.82
2022-12-28T00:22:05.362Z,2.86
2022-12-28T00:24:37.237Z,3.06
2022-12-28T00:27:08.972Z,3.16
2022-12-28T00:29:40.699Z,3.14
2022-12-28T00:32:12.538Z,3.06
2022-12-28T00:34:44.490Z,2.93
2022-12-28T00:37:16.185Z,3.01
2022-12-28T00:39:48.011Z,2.98
2022-12-28T00:42:22.041Z,2.93
2022-12-28T00:44:53.934Z,2.78
2022-12-28T00:47:25.642Z,2.78
2022-12-28T00:49:57.430Z,2.91
2022-12-28T00:52:29.216Z,2.96
2022-12-28T00:55:01.100Z,2.96
2022-12-28T00:57:33.805Z,3.03
2022-12-28T01:00:04.447Z,3.03
2022-12-28T01:02:36.448Z,2.76
2022-12-28T01:05:10.437Z,2.94
2022-12-28T01:07:42.167Z,3.05
2022-12-28T01:10:14.470Z,3.00
2022-12-28T01:12:46.155Z,3.07
2022-12-28T01:15:18.322Z,3.04
2022-12-28T01:17:50.202Z,3.15
2022-12-28T01:20:21.959Z,3.19
2022-12-28T01:22:53.691Z,3.15
2022-12-28T01:25:25.395Z,3.13
2022-12-28T01:27:57.343Z,3.02
2022-12-28T01:30:30.305Z,3.13
2022-12-28T01:33:03.484Z,3.06
2022-12-28T01:35:35.541Z,3.11
2022-12-28T01:38:07.247Z,3.14
2022-12-28T01:40:44.627Z,3.24
2022-12-28T01:43:29.757Z,3.22
2022-12-28T01:46:01.838Z,3.27
2022-12-28T01:48:36.901Z,3.26
2022-12-28T01:51:09.140Z,3.26
2022-12-28T01:53:41.302Z,3.25
2022-12-28T01:56:13.197Z,3.30
2022-12-28T01:58:45.709Z,3.26
2022-12-28T02:01:18.133Z,3.07
2022-12-28T02:03:50.294Z,3.04
2022-12-28T02:06:23.639Z,3.10
2022-12-28T02:09:00.024Z,3.09
2022-12-28T02:11:35.343Z,3.29
2022-12-28T02:14:08.612Z,3.30
2022-12-28T02:16:40.656Z,3.30
2022-12-28T02:19:19.905Z,3.23
2022-12-28T02:22:05.922Z,3.17
2022-12-28T02:25:11.660Z,3.15
2022-12-28T02:27:58.795Z,3.30
2022-12-28T02:30:34.482Z,3.27
2022-12-28T02:33:14.754Z,3.32
2022-12-28T02:35:55.986Z,3.32
2022-12-28T02:38:31.295Z,3.32
2022-12-28T02:41:07.929Z,3.34
2022-12-28T02:43:40.177Z,3.29
2022-12-28T02:46:37.703Z,3.25
2022-12-28T02:49:38.528Z,3.30
2022-12-28T02:52:23.967Z,3.32
2022-12-28T02:55:27.407Z,3.36
2022-12-28T02:58:12.354Z,3.37
2022-12-28T03:00:57.362Z,3.40
2022-12-28T03:03:38.334Z,3.42
2022-12-28T03:06:36.808Z,3.33
2022-12-28T03:09:18.139Z,3.29
2022-12-28T03:11:57.563Z,3.30
2022-12-28T03:14:36.162Z,3.35
2022-12-28T03:17:28.286Z,3.40
2022-12-28T03:20:25.389Z,3.08
2022-12-28T03:23:17.082Z,3.16
2022-12-28T03:26:07.877Z,3.04
2022-12-28T03:29:02.822Z,3.19
2022-12-28T03:31:36.006Z,2.98
2022-12-28T03:34:11.450Z,3.13
2022-12-28T03:36:54.637Z,3.19
2022-12-28T03:39:37.656Z,3.27
2022-12-28T03:42:35.533Z,3.24
2022-12-28T03:45:46.252Z,3.32
2022-12-28T03:48:12.591Z,3.37
2022-12-28T03:50:48.028Z,3.46
2022-12-28T03:53:25.851Z,3.47
2022-12-28T03:56:10.381Z,3.54
2022-12-28T03:58:40.706Z,3.61
2022-12-28T04:01:13.467Z,3.64
2022-12-28T04:03:45.493Z,3.66
2022-12-28T04:06:19.149Z,3.68
2022-12-28T04:08:51.240Z,3.73
2022-12-28T04:11:23.310Z,3.73
2022-12-28T04:13:57.344Z,3.66
2022-12-28T04:16:31.254Z,3.62
2022-12-28T04:19:03.736Z,3.66
2022-12-28T04:21:35.627Z,3.60
2022-12-28T04:24:07.963Z,3.61
2022-12-28T04:26:41.174Z,3.61
2022-12-28T04:29:13.457Z,3.63
2022-12-28T04:31:52.094Z,3.63
2022-12-28T04:34:25.262Z,3.65
2022-12-28T04:37:01.326Z,3.61
2022-12-28T04:39:55.064Z,3.63
2022-12-28T04:42:25.722Z,3.64
2022-12-28T04:44:57.432Z,3.64
2022-12-28T04:47:29.331Z,3.66
2022-12-28T04:50:01.640Z,3.68
2022-12-28T04:52:34.715Z,3.68
2022-12-28T04:55:07.230Z,3.69
2022-12-28T04:57:58.883Z,3.69
2022-12-28T05:00:30.653Z,3.72
2022-12-28T05:03:03.460Z,3.56
2022-12-28T05:05:37.790Z,3.52
2022-12-28T05:08:08.354Z,3.64
2022-12-28T05:10:40.289Z,3.63
2022-12-28T05:13:12.235Z,3.65
2022-12-28T05:15:43.980Z,3.70
2022-12-28T05:18:16.133Z,3.72
2022-12-28T05:20:47.836Z,3.75
2022-12-28T05:23:19.680Z,3.78
2022-12-28T05:25:56.868Z,3.80
2022-12-28T05:28:28.848Z,3.66
2022-12-28T05:31:04.277Z,3.71
2022-12-28T05:33:37.428Z,3.69
2022-12-28T05:36:11.651Z,3.69
2022-12-28T05:38:43.678Z,3.69
2022-12-28T05:41:18.281Z,3.76
2022-12-28T05:43:50.501Z,3.74
2022-12-28T05:46:25.089Z,3.80
2022-12-28T05:48:56.968Z,3.84
2022-12-28T05:51:30.564Z,3.87
2022-12-28T05:54:04.287Z,3.91
2022-12-28T05:56:36.225Z,3.91
2022-12-28T05:59:09.004Z,3.93
2022-12-28T06:01:42.685Z,3.94
2022-12-28T06:04:18.444Z,3.96
2022-12-28T06:06:51.069Z,3.94
2022-12-28T06:09:21.503Z,3.93
2022-12-28T06:11:53.312Z,3.93
2022-12-28T06:14:25.379Z,3.90
2022-12-28T06:16:57.343Z,3.85
2022-12-28T06:19:29.208Z,3.86
2022-12-28T06:22:01.047Z,3.85
2022-12-28T06:24:32.820Z,3.84
2022-12-28T06:27:04.519Z,3.84
2022-12-28T06:29:36.413Z,3.83
2022-12-28T06:32:08.327Z,3.83
2022-12-28T06:34:40.041Z,3.84
2022-12-28T06:37:11.824Z,3.84
2022-12-28T06:39:43.504Z,3.90
2022-12-28T06:42:15.370Z,3.89
2022-12-28T06:44:47.619Z,3.84
2022-12-28T06:47:19.899Z,3.87
2022-12-28T06:49:51.583Z,3.86
2022-12-28T06:52:23.346Z,3.91
2022-12-28T06:54:55.081Z,3.90
2022-12-28T06:57:26.911Z,3.91
2022-12-28T06:59:58.638Z,3.93
2022-12-28T07:02:30.493Z,3.89
2022-12-28T07:05:02.428Z,3.88
2022-12-28T07:07:34.237Z,3.89
2022-12-28T07:10:06.732Z,3.89
2022-12-28T07:12:38.637Z,3.92
2022-12-28T07:15:12.308Z,3.89
2022-12-28T07:17:44.074Z,3.92
2022-12-28T07:20:15.961Z,3.92
2022-12-28T07:22:47.733Z,3.92
2022-12-28T07:25:19.628Z,3.92
2022-12-28T07:27:51.347Z,3.91
2022-12-28T07:30:23.028Z,3.93
2022-12-28T07:32:55.013Z,3.97
2022-12-28T07:35:26.905Z,3.99
2022-12-28T07:37:58.596Z,3.96
2022-12-28T07:40:30.357Z,3.97
2022-12-28T07:43:03.347Z,3.97
2022-12-28T07:45:35.331Z,3.97
2022-12-28T07:48:07.382Z,3.98
2022-12-28T07:50:39.509Z,4.01
2022-12-28T07:53:11.206Z,4.07
2022-12-28T07:55:43.640Z,4.11
2022-12-28T07:58:15.380Z,4.12
2022-12-28T08:00:47.526Z,4.09
2022-12-28T08:03:19.332Z,4.12
2022-12-28T08:05:51.071Z,4.16
2022-12-28T08:08:22.748Z,4.19
2022-12-28T08:10:55.085Z,4.19
2022-12-28T08:13:26.846Z,4.18
2022-12-28T08:15:59.007Z,4.22
2022-12-28T08:18:31.832Z,4.22
2022-12-28T08:21:03.302Z,4.25
2022-12-28T08:23:35.340Z,4.23
2022-12-28T08:26:12.935Z,4.33
2022-12-28T08:28:46.361Z,4.37
2022-12-28T08:31:20.857Z,4.40
2022-12-28T08:33:53.752Z,4.42
2022-12-28T08:36:26.099Z,4.45
2022-12-28T08:38:58.917Z,4.48
2022-12-28T08:41:31.806Z,4.47
2022-12-28T08:44:04.681Z,4.41
2022-12-28T08:46:36.541Z,4.58
2022-12-28T08:49:08.398Z,4.64
2022-12-28T08:51:41.935Z,4.65
2022-12-28T08:54:15.034Z,4.67
2022-12-28T08:56:47.505Z,4.66
2022-12-28T08:59:20.876Z,4.58
2022-12-28T09:01:52.824Z,4.63
2022-12-28T09:04:25.187Z,4.61
2022-12-28T09:06:56.983Z,4.69
2022-12-28T09:09:29.268Z,4.78
2022-12-28T09:12:00.965Z,4.75
2022-12-28T09:14:33.116Z,4.77
2022-12-28T09:17:05.259Z,4.84
2022-12-28T09:19:37.041Z,4.81
2022-12-28T09:22:08.891Z,4.88
2022-12-28T09:24:40.589Z,4.89
2022-12-28T09:27:12.645Z,4.97
2022-12-28T09:29:45.154Z,5.00
2022-12-28T09:32:16.977Z,5.07
2022-12-28T09:34:48.818Z,5.09
2022-12-28T09:37:20.564Z,5.15
2022-12-28T09:39:54.579Z,5.20
2022-12-28T09:42:31.445Z,5.20
2022-12-28T09:45:06.344Z,5.24
2022-12-28T09:47:42.003Z,5.24
2022-12-28T09:50:32.401Z,5.21
2022-12-28T09:53:22.788Z,5.28
2022-12-28T09:56:01.925Z,5.27
2022-12-28T09:58:37.637Z,5.32
2022-12-28T10:01:15.560Z,5.36
2022-12-28T10:03:48.686Z,5.45
2022-12-28T10:06:25.274Z,5.52
2022-12-28T10:09:01.070Z,5.52
2022-12-28T10:11:40.427Z,5.42
2022-12-28T10:14:20.581Z,5.54
2022-12-28T10:16:52.743Z,5.53
2022-12-28T10:19:27.567Z,5.40
2022-12-28T10:22:02.902Z,5.29
2022-12-28T10:24:34.920Z,5.47
2022-12-28T10:27:08.643Z,5.54
2022-12-28T10:29:42.713Z,5.52
2022-12-28T10:32:14.416Z,5.52
2022-12-28T10:34:58.959Z,5.52
2022-12-28T10:37:35.990Z,5.57
2022-12-28T10:40:19.380Z,5.59
2022-12-28T10:42:55.107Z,5.56
2022-12-28T10:45:37.219Z,5.72
2022-12-28T10:48:16.491Z,5.82
2022-12-28T10:50:54.750Z,5.85
2022-12-28T10:53:33.115Z,5.76
2022-12-28T10:56:08.318Z,5.78
2022-12-28T10:58:41.284Z,5.83
2022-12-28T11:01:20.248Z,5.89
2022-12-28T11:04:05.364Z,5.97
2022-12-28T11:06:52.503Z,6.01
2022-12-28T11:09:27.190Z,6.10
2022-12-28T11:12:18.723Z,6.05
2022-12-28T11:14:52.396Z,5.99
2022-12-28T11:17:26.656Z,6.03
2022-12-28T11:20:04.558Z,6.05
2022-12-28T11:22:36.863Z,6.05
2022-12-28T11:25:10.143Z,6.20
2022-12-28T11:27:41.778Z,6.20
2022-12-28T11:30:18.249Z,6.21
2022-12-28T11:32:54.569Z,6.35
2022-12-28T11:35:30.659Z,6.45
2022-12-28T11:38:05.831Z,6.41
2022-12-28T11:40:56.702Z,6.44
2022-12-28T11:43:51.833Z,6.54
2022-12-28T11:46:56.935Z,6.50
2022-12-28T11:49:32.434Z,6.44
2022-12-28T11:52:44.503Z,6.49
2022-12-28T11:56:06.770Z,6.51
2022-12-28T11:58:48.192Z,6.56
2022-12-28T12:01:50.076Z,6.53
2022-12-28T12:04:42.962Z,6.45
2022-12-28T12:07:30.746Z,6.52
2022-12-28T12:10:31.667Z,6.59
2022-12-28T12:13:24.864Z,6.60
2022-12-28T12:16:00.223Z,6.56
2022-12-28T12:18:36.153Z,6.72
2022-12-28T12:21:15.430Z,6.74
2022-12-28T12:23:51.723Z,6.74
2022-12-28T12:26:28.659Z,6.75
2022-12-28T12:29:07.508Z,6.86
2022-12-28T12:31:44.336Z,6.86
2022-12-28T12:34:22.103Z,6.86
2022-12-28T12:37:11.349Z,6.91
2022-12-28T12:39:56.173Z,6.98
2022-12-28T12:42:38.678Z,6.95
2022-12-28T12:45:23.065Z,6.93
2022-12-28T12:48:11.381Z,6.93
2022-12-28T12:51:07.951Z,6.94
2022-12-28T12:53:52.557Z,6.96
2022-12-28T12:56:37.214Z,7.01
2022-12-28T12:59:26.973Z,7.01
2022-12-28T13:02:09.054Z,7.03
2022-12-28T13:04:43.167Z,6.99
2022-12-28T13:07:21.515Z,6.99
2022-12-28T13:09:55.767Z,7.03
2022-12-28T13:12:27.972Z,7.01
2022-12-28T13:15:05.980Z,7.04
2022-12-28T13:17:41.061Z,7.07
2022-12-28T13:20:21.822Z,7.12
2022-12-28T13:22:54.729Z,7.01
2022-12-28T13:25:32.564Z,7.06
2022-12-28T13:28:06.775Z,7.12
2022-12-28T13:30:40.763Z,7.13
2022-12-28T13:33:23.279Z,7.25
2022-12-28T13:36:11.790Z,7.23
2022-12-28T13:38:43.557Z,7.17
2022-12-28T13:41:24.898Z,7.23
2022-12-28T13:44:21.975Z,7.19
2022-12-28T13:46:57.618Z,7.20
2022-12-28T13:49:32.376Z,7.24
2022-12-28T13:52:07.175Z,7.18
2022-12-28T13:54:41.030Z,7.22
2022-12-28T14:00:11.556Z,7.17
2022-12-28T14:02:44.218Z,7.10
2022-12-28T14:05:18.582Z,7.19
2022-12-28T14:07:51.659Z,7.15
2022-12-28T14:10:24.283Z,7.10
2022-12-28T14:12:57.491Z,7.16
2022-12-28T14:15:29.579Z,7.20
2022-12-28T14:18:01.778Z,7.21
2022-12-28T14:20:33.980Z,7.20
2022-12-28T14:23:22.800Z,7.18
2022-12-28T14:25:56.178Z,7.23
2022-12-28T14:28:33.006Z,7.18
2022-12-28T14:31:07.392Z,7.24
2022-12-28T14:33:44.885Z,7.30
2022-12-28T14:36:23.891Z,7.28
2022-12-28T14:39:04.236Z,7.33
2022-12-28T14:41:42.043Z,7.31
2022-12-28T14:44:21.683Z,7.33
2022-12-28T14:46:54.417Z,7.37
2022-12-28T14:49:33.941Z,7.34
2022-12-28T14:52:37.682Z,7.35
2022-12-28T14:55:22.505Z,7.33
2022-12-28T14:57:59.150Z,7.29
2022-12-28T15:00:33.525Z,7.34
2022-12-28T15:03:18.917Z,7.39
2022-12-28T15:05:54.365Z,7.40
2022-12-28T15:08:28.221Z,7.41
2022-12-28T15:11:01.255Z,7.42
2022-12-28T15:13:32.983Z,7.43
2022-12-28T15:16:06.015Z,7.42
2022-12-28T15:18:45.067Z,7.42
2022-12-28T15:21:19.236Z,7.47
2022-12-28T15:23:52.804Z,7.50
2022-12-28T15:26:27.840Z,7.43
2022-12-28T15:28:59.598Z,7.41
2022-12-28T15:31:31.539Z,7.47
2022-12-28T15:34:03.807Z,7.41
2022-12-28T15:36:35.513Z,7.41
2022-12-28T15:39:07.470Z,7.41
2022-12-28T15:41:48.205Z,7.44
2022-12-28T15:44:21.733Z,7.43
2022-12-28T15:46:53.427Z,7.43
2022-12-28T15:49:25.185Z,7.41
2022-12-28T15:51:57.131Z,7.47
2022-12-28T15:54:28.890Z,7.48
2022-12-28T15:57:00.705Z,7.44
2022-12-28T15:59:32.569Z,7.42
2022-12-28T16:02:04.555Z,7.38
2022-12-28T16:04:36.925Z,7.39
2022-12-28T16:07:08.805Z,7.37
2022-12-28T16:09:40.621Z,7.34
2022-12-28T16:12:17.044Z,7.35
2022-12-28T16:14:49.571Z,7.29
2022-12-28T16:17:21.491Z,7.31
2022-12-28T16:19:53.271Z,7.31
2022-12-28T16:22:25.467Z,7.30
2022-12-28T16:24:57.434Z,7.32
2022-12-28T16:27:29.280Z,7.30
2022-12-28T16:30:01.069Z,7.32
2022-12-28T16:32:32.987Z,7.26
2022-12-28T16:35:05.554Z,7.27
2022-12-28T16:37:37.726Z,7.37
2022-12-28T16:40:12.038Z,7.37
2022-12-28T16:42:45.729Z,7.41
2022-12-28T16:45:18.484Z,7.40
2022-12-28T16:47:50.298Z,7.35
2022-12-28T16:50:22.006Z,7.32
2022-12-28T16:52:54.081Z,7.42
2022-12-28T16:55:25.854Z,7.42
2022-12-28T16:57:57.659Z,7.40
2022-12-28T17:00:29.451Z,7.39
2022-12-28T17:03:01.420Z,7.41
2022-12-28T17:05:36.415Z,7.41
2022-12-28T17:08:08.791Z,7.36
2022-12-28T17:10:43.628Z,7.35
2022-12-28T17:13:16.259Z,7.37
2022-12-28T17:15:49.135Z,7.40
2022-12-28T17:18:19.330Z,7.34
2022-12-28T17:20:51.479Z,7.35
2022-12-28T17:23:23.656Z,7.36
2022-12-28T17:25:57.106Z,7.28
2022-12-28T17:28:29.397Z,7.31
2022-12-28T17:31:09.151Z,7.33
2022-12-28T17:33:44.723Z,7.31
2022-12-28T17:36:17.170Z,7.32
2022-12-28T17:38:49.078Z,7.29
2022-12-28T17:41:23.303Z,7.36
2022-12-28T17:43:57.106Z,7.35
2022-12-28T17:46:31.009Z,7.35
2022-12-28T17:49:02.974Z,7.24
2022-12-28T17:51:36.498Z,7.26
2022-12-28T17:54:11.858Z,7.18
2022-12-28T17:56:45.429Z,7.17
2022-12-28T17:59:18.294Z,7.19
2022-12-28T18:01:48.675Z,7.20
2022-12-28T18:04:20.462Z,7.16
2022-12-28T18:06:52.462Z,7.20
2022-12-28T18:09:27.863Z,7.13
2022-12-28T18:12:00.349Z,7.16
2022-12-28T18:14:32.502Z,7.14
2022-12-28T18:17:04.311Z,7.11
2022-12-28T18:19:36.077Z,7.10
2022-12-28T18:22:07.994Z,7.04
2022-12-28T18:24:39.693Z,7.10
2022-12-28T18:27:11.499Z,7.16
2022-12-28T18:29:44.706Z,7.19
2022-12-28T18:32:16.501Z,7.11
2022-12-28T18:34:48.751Z,7.17
2022-12-28T18:37:20.984Z,7.15
2022-12-28T18:39:52.768Z,7.13
2022-12-28T18:42:25.412Z,7.19
2022-12-28T18:44:58.113Z,7.12
2022-12-28T18:47:32.762Z,7.17
2022-12-28T18:50:04.921Z,7.19
2022-12-28T18:52:36.697Z,7.22
2022-12-28T18:55:09.940Z,7.20
2022-12-28T18:57:41.747Z,7.21
2022-12-28T19:00:15.704Z,7.23
2022-12-28T19:02:51.290Z,7.20
2022-12-28T19:05:23.333Z,7.22
2022-12-28T19:07:55.394Z,7.29
2022-12-28T19:10:27.285Z,7.34
2022-12-28T19:12:59.020Z,7.24
2022-12-28T19:15:31.061Z,7.20
2022-12-28T19:18:02.925Z,7.22
2022-12-28T19:20:34.757Z,7.16
2022-12-28T19:23:06.435Z,7.06
2022-12-28T19:25:39.073Z,7.09
2022-12-28T19:28:10.835Z,7.23
2022-12-28T19:30:42.798Z,7.19
2022-12-28T19:33:14.600Z,7.23
2022-12-28T19:35:46.645Z,7.25
2022-12-28T19:38:19.150Z,7.28
2022-12-28T19:40:51.056Z,7.24
2022-12-28T19:43:23.019Z,7.34
2022-12-28T19:46:01.986Z,7.20
2022-12-28T19:48:33.938Z,7.26
2022-12-28T19:51:06.146Z,7.36
2022-12-28T19:53:38.320Z,7.44
2022-12-28T19:56:12.730Z,7.37
2022-12-28T19:58:45.563Z,7.35
2022-12-28T20:01:19.690Z,7.41
2022-12-28T20:03:53.505Z,7.49
2022-12-28T20:06:27.616Z,7.57
2022-12-28T20:09:01.630Z,7.56
2022-12-28T20:11:34.133Z,7.54
2022-12-28T20:14:07.311Z,7.61
2022-12-28T20:16:39.369Z,7.70
2022-12-28T20:19:12.979Z,7.68
2022-12-28T20:21:45.232Z,7.68
2022-12-28T20:24:17.873Z,7.70
2022-12-28T20:26:50.239Z,7.70
2022-12-28T20:29:22.342Z,7.74
2022-12-28T20:31:54.728Z,7.77
2022-12-28T20:34:27.519Z,7.80
2022-12-28T20:36:59.343Z,7.84
2022-12-28T20:39:31.511Z,7.82
2022-12-28T20:42:21.214Z,7.76
2022-12-28T20:44:53.574Z,7.81
2022-12-28T20:47:25.557Z,7.88
2022-12-28T20:49:57.813Z,7.91
2022-12-28T20:52:29.724Z,7.91
2022-12-28T20:55:01.806Z,7.78
2022-12-28T20:57:33.833Z,7.83
2022-12-28T21:00:06.889Z,7.88
2022-12-28T21:02:38.775Z,7.89
2022-12-28T21:05:12.173Z,7.90
2022-12-28T21:07:44.330Z,7.90
2022-12-28T21:10:17.053Z,7.97
2022-12-28T21:12:49.247Z,7.96
2022-12-28T21:15:21.164Z,7.99
2022-12-28T21:17:53.231Z,7.97
2022-12-28T21:20:26.796Z,8.00
2022-12-28T21:22:58.789Z,7.96
2022-12-28T21:25:33.589Z,7.99
2022-12-28T21:28:06.245Z,7.96
2022-12-28T21:30:38.070Z,7.92
2022-12-28T21:33:10.897Z,7.96
2022-12-28T21:35:42.866Z,8.02
2022-12-28T21:38:14.676Z,8.09
2022-12-28T21:40:46.721Z,8.13
2022-12-28T21:43:18.391Z,8.14
2022-12-28T21:46:01.904Z,8.18
2022-12-28T21:48:35.300Z,8.18
2022-12-28T21:51:29.214Z,8.17
2022-12-28T21:54:03.345Z,8.23
2022-12-28T21:56:36.423Z,8.21
2022-12-28T21:59:09.163Z,8.17
2022-12-28T22:02:00.101Z,8.21
2022-12-28T22:04:50.191Z,8.18
2022-12-28T22:07:23.290Z,8.21
2022-12-28T22:10:18.073Z,8.20
2022-12-28T22:12:50.338Z,8.22
2022-12-28T22:15:42.124Z,8.18
2022-12-28T22:18:52.645Z,8.18
2022-12-28T22:21:13.555Z,8.01
2022-12-28T22:23:45.425Z,11.03
2022-12-28T22:26:17.075Z,11.81
2022-12-28T22:28:48.783Z,12.04
2022-12-28T22:31:20.521Z,11.83
2022-12-28T22:33:53.455Z,10.09
2022-12-28T22:36:25.240Z,9.31
2022-12-28T22:38:57.118Z,9.19
2022-12-28T22:41:28.856Z,9.02
2022-12-28T22:44:01.002Z,8.80
2022-12-28T22:46:32.792Z,8.69
2022-12-28T22:49:04.694Z,8.61
2022-12-28T22:51:36.457Z,8.40
2022-12-28T22:54:08.313Z,8.21
2022-12-28T22:56:39.962Z,8.26
2022-12-28T22:59:15.399Z,8.11
2022-12-28T23:01:48.265Z,8.15
2022-12-28T23:04:20.555Z,8.19
2022-12-28T23:06:52.401Z,8.16
2022-12-28T23:09:24.315Z,8.08
2022-12-28T23:11:56.384Z,8.18
2022-12-28T23:14:46.899Z,8.18
2022-12-28T23:17:19.112Z,8.18
2022-12-28T23:20:08.537Z,8.14
2022-12-28T23:23:06.658Z,8.14
2022-12-28T23:25:59.413Z,8.19
2022-12-28T23:28:31.397Z,8.18
2022-12-28T23:31:03.732Z,8.15
2022-12-28T23:33:34.464Z,8.12
2022-12-28T23:36:07.621Z,8.09
2022-12-28T23:38:39.463Z,8.13
2022-12-28T23:41:29.245Z,8.11
2022-12-28T23:44:01.434Z,8.09
2022-12-28T23:46:33.661Z,8.10
2022-12-28T23:49:05.499Z,8.07
2022-12-28T23:51:37.885Z,8.09
2022-12-28T23:54:11.147Z,8.04
2022-12-28T23:56:47.403Z,8.04
2022-12-28T23:59:20.411Z,8.03
